Time;durP1;ratioP1;P1;durP2;ratioP2;P2;SDS_P1;SDS_P2;PMS_P1;PMS_P2;Temp;Humidity;BMP_temperature;BMP_pressure;BME280_temperature;BME280_humidity;BME280_pressure;Samples;Min_cycle;Max_cycle;Signal;HPM_P1;HPM_P2
2022/08/13 00:01:15;;;;;;;6.57;3.88;;;19.10;99.90;;;;;;5098983;27;20047;-70
2022/08/13 00:03:43;;;;;;;7.78;4.50;;;19.00;99.90;;;;;;5098230;27;20050;-70
2022/08/13 00:06:11;;;;;;;5.80;4.10;;;19.00;99.90;;;;;;5093378;27;20725;-70
2022/08/13 00:08:39;;;;;;;9.00;4.32;;;19.00;99.90;;;;;;5106811;27;20047;-70
2022/08/13 00:11:08;;;;;;;6.95;3.80;;;19.00;99.90;;;;;;5112459;27;20114;-70
2022/08/13 00:13:35;;;;;;;6.30;4.00;;;18.90;99.90;;;;;;5109539;27;20094;-70
2022/08/13 00:16:04;;;;;;;5.25;3.60;;;19.00;99.90;;;;;;5092671;27;20702;-70
2022/08/13 00:18:30;;;;;;;5.40;4.35;;;19.00;99.90;;;;;;5114830;27;20053;-71
2022/08/13 00:20:58;;;;;;;5.60;4.13;;;19.00;99.90;;;;;;5081192;27;20504;-75
2022/08/13 00:23:27;;;;;;;5.85;3.95;;;19.00;99.90;;;;;;5115462;27;20497;-75
2022/08/13 00:25:56;;;;;;;4.68;3.70;;;19.00;99.90;;;;;;5110251;27;20092;-74
2022/08/13 00:28:25;;;;;;;5.60;4.40;;;18.90;99.90;;;;;;5121947;27;20496;-75
2022/08/13 00:30:52;;;;;;;5.10;4.18;;;18.90;99.90;;;;;;5110388;27;20046;-75
2022/08/13 00:33:21;;;;;;;4.43;3.40;;;18.90;99.90;;;;;;5121231;27;20038;-75
2022/08/13 00:35:50;;;;;;;5.68;4.82;;;18.80;99.90;;;;;;5114820;27;20070;-75
2022/08/13 00:38:28;;;;;;;5.60;4.32;;;18.80;99.90;;;;;;5110531;27;20592;-78
2022/08/13 00:41:00;;;;;;;7.32;4.40;;;18.70;99.90;;;;;;5100965;27;20035;-78
2022/08/13 00:43:27;;;;;;;4.80;4.28;;;18.70;99.90;;;;;;5076072;27;20301;-79
2022/08/13 00:45:54;;;;;;;8.27;4.60;;;18.60;99.90;;;;;;5112322;27;20130;-78
2022/08/13 00:51:10;;;;;;;6.65;4.47;;;18.50;99.90;;;;;;5096787;27;20417;-78
2022/08/13 00:53:38;;;;;;;5.85;4.13;;;18.50;99.90;;;;;;5138173;27;20125;-78
2022/08/13 00:56:08;;;;;;;5.70;3.83;;;18.50;99.90;;;;;;5118474;27;20442;-78
2022/08/13 00:58:38;;;;;;;8.18;5.15;;;18.40;99.90;;;;;;5077277;27;20050;-78
2022/08/13 01:01:06;;;;;;;5.65;4.38;;;18.40;99.90;;;;;;5116365;27;20099;-78
2022/08/13 01:03:34;;;;;;;6.10;4.30;;;18.30;99.90;;;;;;5119065;27;20051;-78
2022/08/13 01:06:02;;;;;;;7.85;4.47;;;18.30;99.90;;;;;;5115267;27;20130;-78
2022/08/13 01:08:34;;;;;;;9.80;5.30;;;18.20;99.90;;;;;;5097844;27;20047;-78
2022/08/13 01:11:19;;;;;;;6.93;4.10;;;18.20;99.90;;;;;;5114614;27;20797;-78
2022/08/13 01:13:46;;;;;;;6.50;4.18;;;18.20;99.90;;;;;;5097940;27;20434;-78
2022/08/13 01:16:14;;;;;;;9.13;4.95;;;18.10;99.90;;;;;;5103921;27;20765;-78
2022/08/13 01:18:51;;;;;;;9.07;4.38;;;18.20;99.90;;;;;;5118568;27;20099;-75
2022/08/13 01:21:23;;;;;;;10.75;4.93;;;18.10;99.90;;;;;;5103113;27;20049;-75
2022/08/13 01:23:51;;;;;;;5.47;4.05;;;18.10;99.90;;;;;;5107754;27;20047;-75
2022/08/13 01:26:20;;;;;;;7.05;3.97;;;18.10;99.90;;;;;;5088786;27;20071;-75
2022/08/13 01:28:50;;;;;;;6.15;3.53;;;18.10;99.90;;;;;;5109287;27;20045;-75
2022/08/13 01:31:18;;;;;;;5.65;3.88;;;18.10;99.90;;;;;;5092925;27;20531;-76
2022/08/13 01:33:49;;;;;;;10.68;4.05;;;18.10;99.90;;;;;;5100602;27;20073;-75
2022/08/13 01:36:15;;;;;;;9.20;4.45;;;18.10;99.90;;;;;;5092019;27;20665;-75
2022/08/13 01:38:42;;;;;;;6.80;3.83;;;18.10;99.90;;;;;;5107670;27;20046;-79
2022/08/13 01:41:09;;;;;;;8.80;4.70;;;18.10;99.90;;;;;;5092093;27;20038;-78
2022/08/13 01:43:39;;;;;;;9.50;4.10;;;18.10;99.90;;;;;;5113851;27;20042;-79
2022/08/13 01:46:07;;;;;;;5.20;3.92;;;18.00;99.90;;;;;;5082950;27;20047;-79
2022/08/13 01:51:23;;;;;;;7.50;3.90;;;17.80;99.90;;;;;;5105683;27;20065;-79
2022/08/13 01:53:54;;;;;;;5.75;3.53;;;17.70;99.90;;;;;;5091196;27;20669;-79
2022/08/13 01:56:22;;;;;;;7.95;3.97;;;17.70;99.90;;;;;;5086967;27;20617;-78
2022/08/13 01:58:53;;;;;;;7.32;4.20;;;17.70;99.90;;;;;;5083395;27;20433;-79
2022/08/13 02:01:24;;;;;;;6.07;3.67;;;17.60;99.90;;;;;;5094715;27;20043;-79
2022/08/13 02:03:51;;;;;;;10.75;3.90;;;17.70;99.90;;;;;;5088009;27;20073;-79
2022/08/13 02:06:23;;;;;;;6.55;3.40;;;17.70;99.90;;;;;;5109216;27;20913;-78
2022/08/13 02:08:50;;;;;;;7.38;3.90;;;17.60;99.90;;;;;;5113537;27;20045;-78
2022/08/13 02:11:17;;;;;;;7.53;3.67;;;17.50;99.90;;;;;;5093129;27;20055;-78
2022/08/13 02:13:48;;;;;;;8.38;4.45;;;17.60;99.90;;;;;;5099862;27;20035;-79
2022/08/13 02:16:14;;;;;;;6.20;3.90;;;17.50;99.90;;;;;;5076015;27;20848;-79
2022/08/13 02:18:40;;;;;;;5.05;3.97;;;17.40;99.90;;;;;;5097058;27;20108;-79
2022/08/13 02:21:06;;;;;;;4.28;3.40;;;17.30;99.90;;;;;;5086692;27;20116;-79
2022/08/13 02:23:33;;;;;;;6.78;3.78;;;17.30;99.90;;;;;;5082321;27;20533;-79
2022/08/13 02:26:01;;;;;;;6.38;3.22;;;17.30;99.90;;;;;;5115951;27;20031;-79
2022/08/13 02:28:32;;;;;;;7.47;3.50;;;17.40;99.90;;;;;;5093995;27;20826;-79
2022/08/13 02:30:57;;;;;;;6.13;3.15;;;17.40;99.90;;;;;;5079607;27;20572;-78
2022/08/13 02:33:25;;;;;;;6.07;3.63;;;17.40;99.90;;;;;;5066536;27;20042;-79
2022/08/13 02:35:51;;;;;;;6.30;3.75;;;17.40;99.90;;;;;;5095149;27;20039;-79
2022/08/13 02:38:17;;;;;;;6.45;3.30;;;17.40;99.90;;;;;;5096307;27;20042;-79
2022/08/13 02:43:34;;;;;;;5.88;3.28;;;17.30;99.90;;;;;;5108961;27;20636;-79
2022/08/13 02:46:01;;;;;;;5.93;3.65;;;17.40;99.90;;;;;;5097802;27;20410;-79
2022/08/13 02:48:29;;;;;;;4.55;3.13;;;17.30;99.90;;;;;;5075307;27;20139;-79
2022/08/13 02:50:56;;;;;;;6.20;3.80;;;17.30;99.90;;;;;;5100690;27;20039;-79
2022/08/13 02:53:25;;;;;;;6.32;3.83;;;17.30;99.90;;;;;;5094297;27;20087;-79
2022/08/13 02:55:52;;;;;;;5.13;3.42;;;17.20;99.90;;;;;;5119323;27;20046;-80
2022/08/13 02:58:19;;;;;;;7.82;3.53;;;17.20;99.90;;;;;;5100704;27;20194;-79
2022/08/13 03:00:49;;;;;;;5.32;3.33;;;17.20;99.90;;;;;;5097161;27;20768;-78
2022/08/13 03:03:16;;;;;;;;;;;17.20;99.90;;;;;;5099862;27;20143;-79
2022/08/13 03:05:42;;;;;;;5.88;3.80;;;17.10;99.90;;;;;;5119532;27;19927;-79
2022/08/13 03:08:08;;;;;;;6.53;3.63;;;17.20;99.90;;;;;;5107715;27;20509;-79
2022/08/13 03:10:33;;;;;;;6.15;3.75;;;17.20;99.90;;;;;;5081047;27;20134;-78
2022/08/13 03:13:04;;;;;;;5.60;3.45;;;17.10;99.90;;;;;;5098489;27;20023;-78
2022/08/13 03:15:30;;;;;;;7.13;3.80;;;17.10;99.90;;;;;;5103097;27;20124;-78
2022/08/13 03:17:56;;;;;;;5.43;3.00;;;17.10;99.90;;;;;;5102421;27;20110;-78
2022/08/13 03:20:22;;;;;;;7.25;3.88;;;17.10;99.90;;;;;;5096154;27;20070;-77
2022/08/13 03:22:58;;;;;;;6.20;3.90;;;17.10;99.90;;;;;;5120457;27;20488;-79
2022/08/13 03:25:26;;;;;;;7.15;3.58;;;17.10;99.90;;;;;;5108001;27;20594;-78
2022/08/13 03:27:54;;;;;;;6.75;3.72;;;17.10;99.90;;;;;;5120780;27;20035;-79
2022/08/13 03:30:22;;;;;;;4.97;3.50;;;17.00;99.90;;;;;;5124232;27;20097;-78
2022/08/13 03:32:50;;;;;;;6.68;3.83;;;17.00;99.90;;;;;;5111677;27;20082;-78
2022/08/13 03:35:21;;;;;;;5.28;3.20;;;17.00;99.90;;;;;;5112086;27;20040;-79
2022/08/13 03:37:54;;;;;;;7.03;3.70;;;17.00;99.90;;;;;;5112497;27;20498;-78
2022/08/13 03:40:23;;;;;;;6.13;3.38;;;17.00;99.90;;;;;;5116115;27;20035;-78
2022/08/13 03:42:50;;;;;;;5.43;3.38;;;17.00;99.90;;;;;;5110093;27;20673;-79
2022/08/13 03:45:17;;;;;;;4.30;3.00;;;17.00;99.90;;;;;;5117303;27;20116;-78
2022/08/13 03:47:43;;;;;;;7.90;3.17;;;17.00;99.90;;;;;;5099289;27;20104;-79
2022/08/13 03:50:12;;;;;;;6.40;3.42;;;17.10;99.90;;;;;;5101684;28;20040;-78
2022/08/13 03:52:38;;;;;;;6.15;3.50;;;17.10;99.90;;;;;;5086504;27;20044;-79
2022/08/13 03:55:10;;;;;;;5.93;3.38;;;17.00;99.90;;;;;;5107350;27;20039;-78
2022/08/13 03:57:41;;;;;;;5.65;3.88;;;17.00;99.90;;;;;;5121127;27;20039;-78
2022/08/13 04:00:11;;;;;;;4.15;3.13;;;16.90;99.90;;;;;;5108047;27;20035;-78
2022/08/13 04:02:41;;;;;;;6.93;3.60;;;16.80;99.90;;;;;;5097907;27;20042;-78
2022/08/13 04:05:16;;;;;;;7.47;4.15;;;16.80;99.90;;;;;;5080745;27;20058;-78
2022/08/13 04:07:45;;;;;;;5.38;3.85;;;16.70;99.90;;;;;;5121233;27;20067;-79
2022/08/13 04:10:12;;;;;;;6.15;4.03;;;16.70;99.90;;;;;;5109480;27;20494;-78
2022/08/13 04:12:38;;;;;;;4.88;3.80;;;16.60;99.90;;;;;;5088942;28;20047;-79
2022/08/13 04:15:06;;;;;;;6.20;3.78;;;16.60;99.90;;;;;;5099830;27;20035;-78
2022/08/13 04:17:33;;;;;;;4.88;3.47;;;16.50;99.90;;;;;;5098898;28;20044;-75
2022/08/13 04:19:59;;;;;;;8.75;3.78;;;16.50;99.90;;;;;;5088542;28;20139;-75
2022/08/13 04:22:27;;;;;;;4.75;3.67;;;16.50;99.90;;;;;;5097348;28;20103;-75
2022/08/13 04:24:53;;;;;;;4.60;3.78;;;16.50;99.90;;;;;;5110083;27;20095;-75
2022/08/13 04:27:18;;;;;;;7.63;3.60;;;16.50;99.90;;;;;;5092039;27;20047;-75
2022/08/13 04:29:44;;;;;;;5.95;3.78;;;16.50;99.90;;;;;;5104124;28;20036;-75
2022/08/13 04:32:10;;;;;;;5.32;3.75;;;16.50;99.90;;;;;;5096666;28;20541;-74
2022/08/13 04:34:36;;;;;;;5.85;4.18;;;16.50;99.90;;;;;;5103716;28;20124;-75
2022/08/13 04:37:02;;;;;;;6.03;3.97;;;16.50;99.90;;;;;;5088686;28;20038;-75
2022/08/13 04:39:28;;;;;;;5.55;3.90;;;16.50;99.90;;;;;;5097289;28;20040;-75
2022/08/13 04:41:53;;;;;;;6.20;3.90;;;16.40;99.90;;;;;;5102832;28;20084;-75
2022/08/13 04:44:20;;;;;;;6.05;3.70;;;16.50;99.90;;;;;;5089491;28;20040;-74
2022/08/13 04:46:46;;;;;;;4.80;3.50;;;16.50;99.90;;;;;;5098216;28;20122;-75
2022/08/13 04:49:12;;;;;;;7.75;4.25;;;16.40;99.90;;;;;;5073415;28;20111;-75
2022/08/13 04:51:41;;;;;;;4.90;3.38;;;16.50;99.90;;;;;;5090039;28;20405;-75
2022/08/13 04:54:06;;;;;;;5.40;3.58;;;16.50;99.90;;;;;;5094341;28;20553;-75
2022/08/13 04:56:33;;;;;;;5.75;3.72;;;16.50;99.90;;;;;;5063184;28;20047;-75
2022/08/13 04:59:03;;;;;;;4.43;3.60;;;16.50;99.90;;;;;;5059514;28;20044;-79
2022/08/13 05:01:29;;;;;;;4.25;3.53;;;16.60;99.90;;;;;;5078657;28;20055;-79
2022/08/13 05:03:55;;;;;;;4.90;3.40;;;16.70;99.90;;;;;;5057833;28;20673;-78
2022/08/13 05:06:21;;;;;;;6.68;3.40;;;16.70;99.90;;;;;;5088636;28;20101;-78
2022/08/13 05:08:49;;;;;;;5.00;3.50;;;16.70;99.90;;;;;;5084709;28;20118;-79
2022/08/13 05:11:17;;;;;;;4.85;3.10;;;16.80;99.90;;;;;;5098974;28;20039;-79
2022/08/13 05:13:43;;;;;;;5.88;3.47;;;16.80;99.90;;;;;;5103931;28;20067;-79
2022/08/13 05:16:17;;;;;;;6.10;3.53;;;16.80;99.90;;;;;;5102249;28;20039;-79
2022/08/13 05:18:50;;;;;;;6.40;3.60;;;16.90;99.90;;;;;;5102942;28;20048;-79
2022/08/13 05:21:16;;;;;;;7.65;3.20;;;17.00;99.90;;;;;;5098667;28;20127;-79
2022/08/13 05:23:42;;;;;;;4.93;3.53;;;17.00;99.90;;;;;;5080560;28;20040;-75
2022/08/13 05:26:10;;;;;;;5.20;3.63;;;17.10;99.90;;;;;;5076088;28;20544;-75
2022/08/13 05:28:38;;;;;;;5.65;3.60;;;17.10;99.90;;;;;;5103469;28;20040;-75
2022/08/13 05:31:05;;;;;;;5.13;3.35;;;17.10;99.90;;;;;;5086830;27;20422;-75
2022/08/13 05:33:35;;;;;;;6.22;3.55;;;17.20;99.90;;;;;;5106545;27;20091;-79
2022/08/13 05:36:04;;;;;;;6.00;3.05;;;17.20;99.90;;;;;;5105651;27;20043;-79
2022/08/13 05:38:31;;;;;;;3.88;3.28;;;17.30;99.90;;;;;;5122285;27;20054;-79
2022/08/13 05:40:59;;;;;;;3.72;2.92;;;17.30;99.90;;;;;;5096285;27;20054;-80
2022/08/13 05:43:28;;;;;;;4.97;3.25;;;17.40;99.90;;;;;;5118137;27;20569;-79
2022/08/13 05:46:00;;;;;;;4.97;3.65;;;17.50;99.90;;;;;;5124275;27;20665;-79
2022/08/13 05:48:28;;;;;;;5.85;3.03;;;17.60;99.90;;;;;;5123435;27;20355;-79
2022/08/13 05:50:58;;;;;;;5.00;3.42;;;17.60;99.90;;;;;;5104435;28;20542;-76
2022/08/13 05:53:24;;;;;;;;;;;17.70;99.90;;;;;;5094593;27;20091;-76
2022/08/13 05:55:51;;;;;;;4.55;2.80;;;17.70;99.90;;;;;;5108623;28;19927;-76
2022/08/13 05:58:17;;;;;;;3.90;2.72;;;17.80;99.90;;;;;;5110710;27;20057;-75
2022/08/13 06:03:28;;;;;;;5.43;2.40;;;18.00;99.90;;;;;;5111765;27;20382;-75
2022/08/13 06:05:55;;;;;;;4.40;2.47;;;18.20;99.90;;;;;;5108631;28;20100;-76
2022/08/13 06:08:27;;;;;;;4.45;2.50;;;18.30;99.90;;;;;;5083648;27;20051;-75
2022/08/13 06:10:52;;;;;;;4.22;2.35;;;18.50;99.90;;;;;;5120150;28;20055;-76
2022/08/13 06:13:18;;;;;;;6.03;2.40;;;18.70;99.90;;;;;;5120633;28;20027;-76
2022/08/13 06:15:45;;;;;;;4.47;2.53;;;18.90;99.90;;;;;;5113106;27;20051;-80
2022/08/13 06:18:12;;;;;;;2.97;2.30;;;19.00;99.90;;;;;;5105796;28;20048;-79
2022/08/13 06:20:41;;;;;;;5.32;2.53;;;19.10;99.90;;;;;;5125558;27;21822;-80
2022/08/13 06:23:11;;;;;;;5.03;2.33;;;19.30;99.90;;;;;;5112121;27;20507;-80
2022/08/13 06:25:37;;;;;;;5.05;2.30;;;19.40;99.90;;;;;;5121900;27;20090;-76
2022/08/13 06:28:05;;;;;;;4.50;2.25;;;19.50;99.90;;;;;;5092934;27;20075;-76
2022/08/13 06:30:36;;;;;;;4.43;2.35;;;19.60;99.90;;;;;;5122051;27;20544;-76
2022/08/13 06:33:03;;;;;;;3.90;2.40;;;19.70;99.90;;;;;;5122514;27;20078;-76
2022/08/13 06:35:34;;;;;;;3.45;2.40;;;19.80;99.90;;;;;;5109405;27;20135;-76
2022/08/13 06:38:07;;;;;;;4.30;2.13;;;19.90;99.90;;;;;;5124033;27;20115;-76
2022/08/13 06:40:35;;;;;;;5.05;2.10;;;20.00;99.90;;;;;;5103713;27;20486;-76
2022/08/13 06:43:09;;;;;;;3.05;2.03;;;20.10;99.90;;;;;;5095365;27;20038;-76
2022/08/13 06:45:36;;;;;;;4.10;2.03;;;20.20;99.90;;;;;;5116321;27;20047;-84
2022/08/13 06:48:03;;;;;;;7.32;2.42;;;20.30;99.90;;;;;;5116784;27;21274;-81
2022/08/13 06:50:34;;;;;;;3.15;2.08;;;20.50;99.90;;;;;;5112525;27;20108;-82
2022/08/13 06:53:06;;;;;;;4.13;2.10;;;20.70;99.30;;;;;;5082138;27;20043;-81
2022/08/13 06:55:38;;;;;;;3.88;2.08;;;20.80;98.90;;;;;;5098166;27;20043;-83
2022/08/13 06:58:07;;;;;;;5.07;2.65;;;20.90;98.30;;;;;;5120867;27;20039;-76
2022/08/13 07:00:35;;;;;;;4.45;1.98;;;21.10;97.50;;;;;;5129841;27;20505;-76
2022/08/13 07:03:10;;;;;;;5.55;2.65;;;21.20;96.70;;;;;;5122263;27;20070;-77
2022/08/13 07:05:43;;;;;;;4.97;2.00;;;21.30;96.20;;;;;;5108162;27;20043;-76
2022/08/13 07:08:11;;;;;;;4.40;1.83;;;21.40;95.50;;;;;;5101618;27;20075;-76
2022/08/13 07:10:47;;;;;;;3.13;1.80;;;21.60;95.10;;;;;;5085811;27;20066;-76
2022/08/13 07:13:13;;;;;;;3.33;1.92;;;21.70;94.50;;;;;;5119712;27;20078;-76
2022/08/13 07:15:45;;;;;;;3.58;1.98;;;21.80;94.00;;;;;;5079629;27;20114;-76
2022/08/13 07:18:11;;;;;;;7.07;2.20;;;22.00;93.70;;;;;;5115617;27;20057;-76
2022/08/13 07:20:37;;;;;;;5.38;1.75;;;22.10;93.30;;;;;;5097280;27;20099;-76
2022/08/13 07:23:03;;;;;;;5.25;1.83;;;22.30;93.20;;;;;;5093557;27;20068;-77
2022/08/13 07:25:32;;;;;;;5.00;2.20;;;22.40;93.00;;;;;;5108730;27;20027;-77
2022/08/13 07:27:59;;;;;;;4.45;2.10;;;22.60;92.90;;;;;;5116273;27;20046;-77
2022/08/13 07:30:28;;;;;;;5.13;1.65;;;22.80;92.90;;;;;;5104142;27;20049;-76
2022/08/13 07:32:55;;;;;;;4.93;2.23;;;22.90;91.70;;;;;;5104589;27;20050;-76
2022/08/13 07:35:20;;;;;;;5.35;1.70;;;23.10;90.90;;;;;;5117633;27;20277;-76
2022/08/13 07:37:52;;;;;;;3.03;1.70;;;23.30;90.00;;;;;;5121950;27;20050;-80
2022/08/13 07:40:19;;;;;;;3.60;1.75;;;23.40;89.10;;;;;;5104393;27;20640;-81
2022/08/13 07:42:48;;;;;;;3.67;1.90;;;23.50;88.40;;;;;;5102870;27;20398;-80
2022/08/13 07:45:25;;;;;;;3.77;1.63;;;23.80;89.10;;;;;;5093813;27;20073;-81
2022/08/13 07:47:52;;;;;;;3.10;1.70;;;23.90;86.80;;;;;;5121679;27;20137;-77
2022/08/13 07:50:18;;;;;;;2.55;1.60;;;24.10;85.20;;;;;;5100921;27;20047;-77
2022/08/13 07:52:45;;;;;;;3.72;2.28;;;24.30;83.70;;;;;;5076886;27;20046;-79
2022/08/13 07:55:10;;;;;;;2.95;1.70;;;24.40;83.00;;;;;;5103366;27;20047;-77
2022/08/13 07:57:46;;;;;;;4.60;1.48;;;24.60;80.80;;;;;;5083926;27;20134;-77
2022/08/13 08:00:21;;;;;;;3.33;1.42;;;24.80;79.20;;;;;;5076005;27;20448;-76
2022/08/13 08:02:54;;;;;;;4.05;1.90;;;25.00;78.30;;;;;;5107933;27;20107;-82
2022/08/13 08:05:22;;;;;;;2.78;1.67;;;25.20;76.90;;;;;;5105630;27;20129;-82
2022/08/13 08:07:50;;;;;;;3.92;1.48;;;25.30;73.80;;;;;;5107215;27;20400;-81
2022/08/13 08:10:18;;;;;;;4.28;1.33;;;25.50;73.20;;;;;;5097952;27;20070;-80
2022/08/13 08:12:45;;;;;;;2.25;1.45;;;25.70;73.80;;;;;;5084455;27;20039;-80
2022/08/13 08:15:11;;;;;;;4.53;1.60;;;25.80;72.80;;;;;;5103245;27;20043;-83
2022/08/13 08:17:38;;;;;;;3.78;1.52;;;26.00;72.20;;;;;;5079034;27;20039;-80
2022/08/13 08:20:05;;;;;;;4.32;1.30;;;26.10;71.10;;;;;;5117168;27;20050;-81
2022/08/13 08:22:31;;;;;;;4.70;1.73;;;26.30;69.70;;;;;;5100278;27;20047;-80
2022/08/13 08:24:57;;;;;;;3.35;1.35;;;26.40;67.70;;;;;;5117766;27;20088;-77
2022/08/13 08:27:25;;;;;;;1.67;1.30;;;26.50;67.50;;;;;;5113342;27;20065;-77
2022/08/13 08:29:52;;;;;;;5.07;1.70;;;26.70;65.60;;;;;;5101153;27;20122;-77
2022/08/13 08:32:18;;;;;;;2.72;1.58;;;26.90;65.10;;;;;;5115481;27;20063;-77
2022/08/13 08:34:46;;;;;;;3.17;1.60;;;27.00;64.00;;;;;;5114799;27;20570;-80
2022/08/13 08:43:02;;;;;;;2.58;1.52;;;27.40;62.10;;;;;;5100937;27;20058;-81
2022/08/13 08:45:28;;;;;;;3.92;1.60;;;27.60;60.80;;;;;;5100739;27;20439;-80
2022/08/13 08:47:54;;;;;;;5.43;1.45;;;27.70;58.80;;;;;;5077685;27;20171;-80
2022/08/13 08:50:22;;;;;;;2.75;1.50;;;27.80;58.10;;;;;;5113610;27;20055;-77
2022/08/13 08:55:37;;;;;;;3.70;1.20;;;28.00;57.70;;;;;;5113097;27;20067;-77
2022/08/13 08:58:07;;;;;;;2.30;1.38;;;28.20;56.30;;;;;;5115115;27;20053;-76
2022/08/13 09:00:39;;;;;;;3.60;1.73;;;28.30;55.50;;;;;;5093494;27;20055;-76
2022/08/13 09:03:07;;;;;;;4.32;1.63;;;28.40;55.60;;;;;;5119502;27;20081;-76
2022/08/13 09:05:34;;;;;;;2.95;1.27;;;28.50;54.30;;;;;;5102284;27;20043;-77
2022/08/13 09:08:03;;;;;;;3.72;1.40;;;28.60;55.40;;;;;;5115894;27;20043;-82
2022/08/13 09:10:33;;;;;;;3.88;1.48;;;28.70;54.30;;;;;;5127943;27;20047;-77
2022/08/13 09:13:03;;;;;;;4.25;1.55;;;28.80;52.90;;;;;;5096497;27;20073;-79
2022/08/13 09:15:31;;;;;;;4.40;1.52;;;28.80;53.30;;;;;;5113346;27;20050;-76
2022/08/13 09:17:58;;;;;;;2.40;1.45;;;28.90;53.40;;;;;;5114582;27;20043;-76
2022/08/13 09:20:26;;;;;;;3.65;1.38;;;29.00;53.70;;;;;;5104225;27;20552;-74
2022/08/13 09:23:12;;;;;;;4.05;1.38;;;29.10;53.70;;;;;;5110165;27;20719;-74
2022/08/13 09:25:48;;;;;;;2.75;1.38;;;29.30;53.10;;;;;;5114404;27;20060;-77
2022/08/13 09:28:24;;;;;;;3.30;1.50;;;29.40;52.40;;;;;;5125084;27;20058;-77
2022/08/13 09:30:55;;;;;;;6.75;1.30;;;29.50;51.10;;;;;;5094046;27;20122;-74
2022/08/13 09:33:23;;;;;;;3.90;1.33;;;29.50;51.10;;;;;;5058987;28;20278;-75
2022/08/13 09:35:51;;;;;;;5.53;1.52;;;29.60;49.80;;;;;;5079714;28;20054;-74
2022/08/13 09:38:20;;;;;;;3.92;1.35;;;29.60;49.60;;;;;;5059677;28;20046;-76
2022/08/13 09:40:50;;;;;;;2.67;1.40;;;29.70;49.60;;;;;;5090955;28;20048;-74
2022/08/13 09:43:21;;;;;;;5.55;1.33;;;29.70;48.70;;;;;;5089831;28;20032;-78
2022/08/13 09:45:48;;;;;;;3.42;1.25;;;29.80;49.10;;;;;;5080074;28;20136;-74
2022/08/13 09:48:15;;;;;;;4.10;1.50;;;29.90;49.20;;;;;;5067085;28;20942;-75
2022/08/13 09:50:41;;;;;;;3.13;1.40;;;30.00;49.70;;;;;;5078980;28;20048;-74
2022/08/13 09:53:08;;;;;;;2.13;1.00;;;30.10;48.30;;;;;;5089407;28;20040;-78
2022/08/13 09:55:37;;;;;;;3.67;1.40;;;30.20;48.40;;;;;;5067090;28;20987;-80
2022/08/13 09:58:04;;;;;;;2.17;1.30;;;30.30;47.20;;;;;;5076211;28;20687;-76
2022/08/13 10:00:34;;;;;;;3.15;1.30;;;30.30;45.70;;;;;;5077666;28;20187;-79
2022/08/13 10:03:07;;;;;;;5.55;1.40;;;30.20;46.00;;;;;;5061052;28;20487;-79
2022/08/13 10:05:34;;;;;;;2.85;1.30;;;30.20;48.00;;;;;;5078605;28;20044;-80
2022/08/13 10:08:06;;;;;;;3.83;1.25;;;30.10;46.60;;;;;;5059529;28;20050;-81
2022/08/13 10:10:33;;;;;;;2.97;1.48;;;30.20;47.60;;;;;;5094554;28;20040;-81
2022/08/13 10:13:00;;;;;;;4.22;1.08;;;30.20;46.90;;;;;;5075761;28;20490;-77
2022/08/13 10:15:29;;;;;;;4.43;1.45;;;30.20;46.40;;;;;;5084303;28;20278;-82
2022/08/13 10:17:57;;;;;;;2.83;1.30;;;30.20;46.90;;;;;;5076451;28;20482;-84
2022/08/13 10:20:24;;;;;;;3.08;1.30;;;30.20;46.90;;;;;;5072552;28;20386;-81
2022/08/13 10:22:54;;;;;;;2.88;1.45;;;30.30;46.30;;;;;;5080910;28;20593;-83
2022/08/13 10:25:20;;;;;;;3.45;1.33;;;30.20;46.00;;;;;;5061272;28;20047;-80
2022/08/13 10:27:48;;;;;;;3.65;1.20;;;30.30;46.20;;;;;;5077334;28;20044;-79
2022/08/13 10:30:19;;;;;;;3.63;1.52;;;30.40;45.50;;;;;;5079200;28;20044;-80
2022/08/13 10:32:47;;;;;;;4.03;1.33;;;30.30;44.30;;;;;;5095384;27;20048;-84
2022/08/13 10:35:17;;;;;;;3.00;1.50;;;30.40;44.30;;;;;;5107455;27;20046;-82
2022/08/13 10:37:53;;;;;;;3.55;1.30;;;30.30;44.90;;;;;;5114952;27;20561;-80
2022/08/13 10:40:20;;;;;;;2.95;1.60;;;30.30;45.00;;;;;;5091601;27;20039;-81
2022/08/13 10:42:46;;;;;;;11.57;10.55;;;30.30;45.20;;;;;;5116428;27;20494;-81
2022/08/13 10:45:15;;;;;;;1.60;1.33;;;30.40;45.70;;;;;;5099694;27;20043;-79
2022/08/13 10:47:51;;;;;;;2.60;1.30;;;30.60;45.60;;;;;;5097643;27;20052;-78
2022/08/13 10:50:26;;;;;;;3.10;1.40;;;30.70;45.20;;;;;;5103527;27;20070;-82
2022/08/13 10:52:52;;;;;;;3.50;1.70;;;30.70;44.60;;;;;;5099195;27;20075;-83
2022/08/13 10:55:18;;;;;;;2.25;1.42;;;30.80;44.90;;;;;;5074475;27;20063;-77
2022/08/13 10:57:45;;;;;;;3.22;1.50;;;30.90;44.20;;;;;;5112145;27;20469;-81
2022/08/13 11:00:22;;;;;;;2.55;1.20;;;30.80;44.60;;;;;;5090653;27;20031;-80
2022/08/13 11:02:50;;;;;;;2.13;1.35;;;30.80;44.80;;;;;;5094083;27;20039;-80
2022/08/13 11:05:22;;;;;;;4.35;1.60;;;30.80;44.30;;;;;;5082710;27;21523;-81
2022/08/13 11:07:49;;;;;;;2.67;1.52;;;30.90;45.00;;;;;;5091777;28;20502;-80
2022/08/13 11:10:15;;;;;;;3.10;1.30;;;31.00;45.10;;;;;;5090059;28;20048;-80
2022/08/13 11:12:50;;;;;;;2.55;1.50;;;31.10;44.60;;;;;;5115921;27;20123;-85
2022/08/13 11:15:23;;;;;;;5.07;1.80;;;31.20;44.80;;;;;;5108556;27;20047;-82
2022/08/13 11:17:56;;;;;;;2.35;1.33;;;31.30;43.10;;;;;;5075194;27;20350;-78
2022/08/13 11:20:24;;;;;;;2.35;1.52;;;31.40;43.90;;;;;;5108455;28;20051;-81
2022/08/13 11:22:53;;;;;;;3.10;1.30;;;31.30;44.00;;;;;;5077345;27;20050;-80
2022/08/13 11:25:19;;;;;;;3.72;1.50;;;31.30;43.90;;;;;;5107575;27;20099;-82
2022/08/13 11:27:46;;;;;;;3.15;1.35;;;31.20;43.60;;;;;;5104540;27;20403;-80
2022/08/13 11:30:14;;;;;;;3.15;1.63;;;31.10;42.70;;;;;;5104090;27;20046;-81
2022/08/13 11:32:40;;;;;;;5.43;1.55;;;31.10;42.50;;;;;;5115139;27;20098;-82
2022/08/13 11:35:07;;;;;;;3.42;1.50;;;31.20;42.10;;;;;;5115687;27;20039;-80
2022/08/13 11:37:34;;;;;;;2.30;1.20;;;31.20;43.30;;;;;;5087332;28;20043;-81
2022/08/13 11:40:03;;;;;;;3.75;1.55;;;31.30;42.80;;;;;;5116608;27;20043;-80
2022/08/13 11:42:32;;;;;;;5.50;1.33;;;31.40;42.40;;;;;;5093187;27;20435;-80
2022/08/13 11:44:58;;;;;;;2.55;1.23;;;31.40;43.00;;;;;;5115059;27;20035;-81
2022/08/13 11:47:24;;;;;;;2.20;1.27;;;31.50;43.10;;;;;;5093640;28;20707;-81
2022/08/13 11:49:50;;;;;;;2.95;1.40;;;31.70;42.40;;;;;;5111316;27;20067;-80
2022/08/13 11:52:16;;;;;;;3.65;1.42;;;31.80;42.30;;;;;;5103588;27;20073;-80
2022/08/13 11:54:45;;;;;;;5.20;1.70;;;31.80;42.30;;;;;;5081492;27;20382;-78
2022/08/13 11:57:10;;;;;;;2.42;1.40;;;31.90;41.90;;;;;;5117033;27;20078;-79
2022/08/13 11:59:36;;;;;;;4.53;1.50;;;31.90;41.20;;;;;;5095541;28;20122;-80
2022/08/13 12:02:02;;;;;;;2.72;1.27;;;31.90;41.30;;;;;;5117483;27;20043;-82
2022/08/13 12:04:31;;;;;;;4.25;1.40;;;31.90;41.90;;;;;;5111448;27;20031;-78
2022/08/13 12:06:57;;;;;;;4.97;3.20;;;31.90;41.60;;;;;;5090216;27;20036;-81
2022/08/13 12:09:23;;;;;;;3.08;1.48;;;31.90;41.30;;;;;;5081961;28;20036;-83
2022/08/13 12:11:49;;;;;;;4.32;2.00;;;31.90;41.30;;;;;;5089609;27;20047;-81
2022/08/13 12:14:14;;;;;;;2.72;1.52;;;31.90;41.20;;;;;;5117646;27;20083;-81
2022/08/13 12:16:40;;;;;;;2.95;1.40;;;32.00;41.90;;;;;;5094315;28;20086;-80
2022/08/13 12:19:06;;;;;;;3.42;1.40;;;32.00;41.90;;;;;;5108397;27;20043;-80
2022/08/13 12:21:33;;;;;;;2.00;1.23;;;32.10;42.10;;;;;;5087521;27;20054;-80
2022/08/13 12:23:58;;;;;;;2.90;1.40;;;32.00;42.00;;;;;;5111272;27;20044;-78
2022/08/13 12:26:24;;;;;;;2.53;1.40;;;32.10;41.40;;;;;;5092356;27;20055;-81
2022/08/13 12:28:50;;;;;;;3.05;1.38;;;32.10;40.70;;;;;;5098750;27;20039;-81
2022/08/13 12:31:17;;;;;;;2.45;1.52;;;32.10;41.40;;;;;;5103101;27;20055;-81
2022/08/13 12:33:43;;;;;;;3.08;1.35;;;32.30;40.90;;;;;;5101381;27;20718;-80
2022/08/13 12:36:10;;;;;;;2.47;1.48;;;32.30;40.90;;;;;;5114535;27;20031;-83
2022/08/13 12:38:39;;;;;;;6.60;1.50;;;32.50;40.90;;;;;;5098213;27;20056;-81
2022/08/13 12:41:05;;;;;;;2.45;1.40;;;32.60;40.10;;;;;;5117997;27;20515;-82
2022/08/13 12:43:31;;;;;;;2.45;1.27;;;32.60;40.10;;;;;;5087257;27;20043;-79
2022/08/13 12:45:57;;;;;;;3.42;1.52;;;32.60;39.10;;;;;;5103687;27;20590;-81
2022/08/13 12:48:28;;;;;;;3.38;1.48;;;32.50;39.40;;;;;;5095693;27;20043;-80
2022/08/13 12:50:54;;;;;;;2.45;1.25;;;32.50;40.50;;;;;;5102159;27;20543;-80
2022/08/13 12:53:20;;;;;;;4.45;1.70;;;32.70;40.20;;;;;;5083910;27;20039;-82
2022/08/13 12:55:49;;;;;;;2.78;1.60;;;32.80;39.60;;;;;;5086925;27;20046;-81
2022/08/13 12:58:15;;;;;;;3.30;1.40;;;32.90;39.70;;;;;;5112932;27;20362;-79
2022/08/13 13:00:43;;;;;;;3.50;1.50;;;32.80;40.30;;;;;;5102142;27;20092;-79
2022/08/13 13:03:10;;;;;;;2.50;1.35;;;32.80;39.60;;;;;;5104762;27;20122;-79
2022/08/13 13:05:36;;;;;;;2.03;1.45;;;32.70;39.70;;;;;;5107008;27;20099;-79
2022/08/13 13:08:25;;;;;;;1.95;1.30;;;32.70;38.80;;;;;;5104573;27;20062;-80
2022/08/13 13:10:52;;;;;;;1.88;1.33;;;32.80;39.60;;;;;;5123990;27;20046;-80
2022/08/13 13:13:21;;;;;;;3.13;1.33;;;32.80;40.30;;;;;;5101034;27;20049;-80